Hovedside
METAR-TAF:

METAR-TAF

Lufthavner :

Chongqing Jiangbei internasjonale lufthavn

Chongqing, Kina

breddegrad: 29-31N, lengdegrad: 106-29E, høyde over havet: 351 m

Gjeldene værobservasjon

Denne rapporten ble laget for 15 minutter siden, klokken 04:00 UTC
Vind 2 kt fra skiftende retning
Temperatur 18°C
Luftfuktighet 83%
Trykk 1017 hPa
Sikt: 6000 m
Spredte skyer i en høyde av 2600 ft
Overskyet i en høyde av 5000 ft

METAR: ZUCK 240400Z VRB01MPS 6000 SCT026 OVC050 18/15 Q1017 NOSIG

Tid: 12:15 (04:15 UTC)

Varsel

Denne rapporten ble laget for 9 timer og 6 minutter siden, klokken 19:09 UTC
Varsel gyldig fra 24. klokken 00 UTC til 24. klokken 24 UTC
Vind 6 kt fra Nord
Sikt: 3500 m
Spredte skyer i en høyde av 2000 ft
Overskyet i en høyde av 4000 ft
dis
Midlertidig
fra 24. klokken 00 UTC til 24. klokken 06 UTC
lett regn

TAF: ZUCK 231909Z 2400/2424 01003MPS 3500 BR SCT020 OVC040 TX17/2408Z TN14/2422Z TEMPO 2400/2406 -RA

Værobservasjoner og værvarsel for over 4000 flyplasser (METAR- og TAF-rapporter).

Tilgjengelige stasjoner er representert av de røde og gule prikkene på kartet.

Hold musepekeren over prikken for å se navnet på stasjonen.

Klikk så for å se værobservasjoner og -varsler.

For å forandre kartet kan du klikke på den grønne knappen med svart kryss for å zoome inn, på den grønne knappen med strek for å zoome ut, eller på de grønne pilene for å se tilstøtende kart.


METAR-TAF: